Welcome to Trans World Virtual Airlines!

Welcome TWVA's Newest Pilot:

TWA2313 Bryan Heald

Not a Trans World pilot yet?
Apply Now!




Sign-in with your pilot id or email, or register

Flight TWA506

  • Submitted By: Austin Hill
  • Departure Airport: Denver International Airport (KDEN)
  • Arrival Airport: Kansas City International Airport (KMCI)
  • Aircraft: MD-83 (N44266TW)
  • Flight Time: 01.42
  • Date Submitted: 11/06/2018
  • Route: FWF GLD HLC SLOWR CATTS MCI KMCI
  • Status: Accepted
Flight Details
Gross Revenue:
(115 load / $ 195.00 per unit
$ 22, 425.00
Fuel Cost:
(12175 fuel used @ 0.8 / unit)
$ 9, 740.00

Additional Log Information:

View Log

FS[20:55] Aircraft Title - MD_83 Paint4
FS[20:55] Aircraft Model - MD83
FS[20:55] Flight Number TWA506
FS[20:55] Departure KDEN
FS[20:55] Destination KMCI
FS[20:55] Boarding
FS[21:03] Pushing Back
FS[21:07] Taxiing to Runway
FS[21:12] Taking Off
FS[21:12] Taking Off
FS[21:12] 168kts
FS[21:12] pitch angle 10 degrees
FS[21:12] 26366 (lbs) of fuel onboard
FS[21:12] Climbing
FS[21:28] TOC Reached
FS[21:28] Cruise 35000
FS[21:56] TOD Reached
FS[21:56] Descending
FS[22:16] On Approach
FS[22:26] Landing Rate -109fpm
FS[22:26] 15406 (lbs) of fuel onboard
FS[22:26] pitch angle 6 degrees
FS[22:26] Taxiing to Gate
FS[22:30] Arrived
FS[22:36] Max Sim Rate: 1x
FS[22:36] kACARS_Free Version 1.0.1.1

Comments

Commenter Comment
Austin Hill KDEN 062053Z 31014G23KT SCT080 SCT130 11/M11 A2994 // KMCI 062153Z 29006KT 10SM -RA SCT055 BKN070 OVC090 09/01 A3003

Route Map